Time;durP1;ratioP1;P1;durP2;ratioP2;P2;SDS_P1;SDS_P2;PMS_P1;PMS_P2;Temp;Humidity;BMP_temperature;BMP_pressure;BME280_temperature;BME280_humidity;BME280_pressure;Samples;Min_cycle;Max_cycle;Signal;HPM_P1;HPM_P2
2022/07/03 00:01:26;;;;;;;0.00;0.00;;;18.60;71.00;;;;;;5050791;28;20049;-72
2022/07/03 00:03:52;;;;;;;0.00;0.00;;;18.70;71.30;;;;;;5070890;28;20440;-72
2022/07/03 00:06:18;;;;;;;0.00;0.00;;;18.60;71.30;;;;;;5052408;28;20040;-71
2022/07/03 00:08:43;;;;;;;0.00;0.00;;;18.60;71.60;;;;;;5051189;28;20603;-71
2022/07/03 00:11:09;;;;;;;0.00;0.00;;;18.60;71.60;;;;;;5049409;28;20048;-72
2022/07/03 00:13:36;;;;;;;0.22;0.22;;;18.50;72.30;;;;;;5067989;28;20047;-72
2022/07/03 00:16:02;;;;;;;0.00;0.00;;;18.50;72.20;;;;;;5055517;28;20049;-72
2022/07/03 00:18:27;;;;;;;0.00;0.00;;;18.40;72.30;;;;;;5050710;28;20818;-72
2022/07/03 00:21:04;;;;;;;0.00;0.00;;;18.40;72.00;;;;;;5050654;28;20041;-72
2022/07/03 00:23:37;;;;;;;0.00;0.00;;;18.40;72.70;;;;;;5051313;28;20133;-72
2022/07/03 00:26:05;;;;;;;0.00;0.00;;;18.30;72.80;;;;;;5050438;28;20045;-72
2022/07/03 00:28:31;;;;;;;0.00;0.00;;;18.30;73.20;;;;;;5050965;28;20041;-72
2022/07/03 00:30:57;;;;;;;0.00;0.00;;;18.30;73.00;;;;;;5050442;28;20051;-72
2022/07/03 00:33:25;;;;;;;0.00;0.00;;;18.30;72.90;;;;;;5050592;28;20123;-71
2022/07/03 00:35:53;;;;;;;0.00;0.00;;;18.30;73.30;;;;;;5050214;28;20060;-71
2022/07/03 00:38:21;;;;;;;0.00;0.00;;;18.30;73.20;;;;;;5050750;28;20041;-71
2022/07/03 00:40:47;;;;;;;0.00;0.00;;;18.30;73.20;;;;;;5050230;28;20417;-71
2022/07/03 00:43:15;;;;;;;0.00;0.00;;;18.10;73.30;;;;;;5063838;28;20036;-71
2022/07/03 00:45:46;;;;;;;0.00;0.00;;;18.10;73.20;;;;;;5060424;28;20509;-71
2022/07/03 00:48:13;;;;;;;0.00;0.00;;;18.10;73.00;;;;;;5050232;28;20506;-71
2022/07/03 00:50:46;;;;;;;0.00;0.00;;;18.10;72.90;;;;;;5050303;28;20103;-72
2022/07/03 00:53:13;;;;;;;0.00;0.00;;;18.00;72.70;;;;;;5049929;28;20059;-71
2022/07/03 00:55:42;;;;;;;0.00;0.00;;;18.00;73.20;;;;;;5049836;28;20037;-71
2022/07/03 00:58:09;;;;;;;0.00;0.00;;;18.00;72.90;;;;;;5051488;28;20843;-72
2022/07/03 01:00:40;;;;;;;0.00;0.00;;;17.90;72.80;;;;;;5050034;28;20049;-71
2022/07/03 01:03:10;;;;;;;0.00;0.00;;;17.90;73.00;;;;;;5049176;28;20060;-72
2022/07/03 01:05:42;;;;;;;0.00;0.00;;;17.90;73.30;;;;;;5049537;28;20086;-72
2022/07/03 01:08:11;;;;;;;;;;;17.90;73.40;;;;;;5050401;28;20044;-72
2022/07/03 01:11:09;;;;;;;0.00;0.00;;;17.80;73.40;;;;;;5049547;28;20007;-71
2022/07/03 01:13:46;;;;;;;0.00;0.00;;;17.80;73.70;;;;;;5049714;28;20127;-72
2022/07/03 01:16:33;;;;;;;0.00;0.00;;;17.80;74.20;;;;;;5049602;28;20059;-71
2022/07/03 01:19:32;;;;;;;0.00;0.00;;;17.70;74.20;;;;;;5055665;28;20045;-72
2022/07/03 01:22:20;;;;;;;0.00;0.00;;;17.60;74.50;;;;;;5056836;28;20087;-72
2022/07/03 01:25:19;;;;;;;0.00;0.00;;;17.70;74.20;;;;;;5049586;28;20748;-72
2022/07/03 01:27:59;;;;;;;0.00;0.00;;;17.70;74.30;;;;;;5049500;28;20410;-71
2022/07/03 01:30:30;;;;;;;0.00;0.00;;;17.60;74.30;;;;;;5050225;28;20068;-71
2022/07/03 01:33:06;;;;;;;0.00;0.00;;;17.60;74.40;;;;;;5029612;28;20433;-72
2022/07/03 01:35:33;;;;;;;0.00;0.00;;;17.60;74.50;;;;;;5031715;28;20292;-72
2022/07/03 01:38:05;;;;;;;0.00;0.00;;;17.60;74.40;;;;;;5049577;28;20048;-72
2022/07/03 01:40:36;;;;;;;0.00;0.00;;;17.60;74.50;;;;;;5050280;28;20045;-72
2022/07/03 01:43:04;;;;;;;0.00;0.00;;;17.50;74.40;;;;;;5048793;28;20049;-72
2022/07/03 01:45:34;;;;;;;0.00;0.00;;;17.50;74.50;;;;;;5049222;28;20044;-72
2022/07/03 01:48:02;;;;;;;0.00;0.00;;;17.50;74.60;;;;;;5053602;28;20750;-72
2022/07/03 01:50:29;;;;;;;0.00;0.00;;;17.50;74.60;;;;;;5067233;28;20131;-72
2022/07/03 01:52:57;;;;;;;0.00;0.00;;;17.50;74.40;;;;;;5049267;28;20057;-72
2022/07/03 01:55:23;;;;;;;0.00;0.00;;;17.50;74.20;;;;;;5048982;28;20057;-72
2022/07/03 01:57:50;;;;;;;0.00;0.00;;;17.40;74.30;;;;;;5049147;28;20060;-72
2022/07/03 02:00:21;;;;;;;0.00;0.00;;;17.40;74.60;;;;;;5061290;28;20045;-72
2022/07/03 02:03:05;;;;;;;0.00;0.00;;;17.40;74.50;;;;;;5048901;28;20048;-72
2022/07/03 02:05:35;;;;;;;0.00;0.00;;;17.30;74.90;;;;;;5049321;28;20048;-72
2022/07/03 02:08:29;;;;;;;0.00;0.00;;;17.20;75.50;;;;;;5048670;28;20048;-71
2022/07/03 02:11:16;;;;;;;0.00;0.00;;;17.10;75.10;;;;;;5042046;28;20311;-72
2022/07/03 02:13:54;;;;;;;0.00;0.00;;;17.10;75.00;;;;;;5049107;28;20091;-71
2022/07/03 02:16:22;;;;;;;0.00;0.00;;;17.10;75.40;;;;;;5048354;28;20041;-71
2022/07/03 02:18:57;;;;;;;0.00;0.00;;;17.10;75.50;;;;;;5049226;28;20032;-73
2022/07/03 02:21:26;;;;;;;0.00;0.00;;;17.10;75.70;;;;;;5048260;28;20052;-72
2022/07/03 02:23:54;;;;;;;0.00;0.00;;;17.10;75.70;;;;;;5049060;28;20053;-72
2022/07/03 02:26:29;;;;;;;0.00;0.00;;;17.10;75.90;;;;;;5048599;28;20053;-72
2022/07/03 02:29:01;;;;;;;0.00;0.00;;;17.10;76.10;;;;;;5048719;28;20067;-71
2022/07/03 02:31:27;;;;;;;;;;;17.10;76.00;;;;;;5048885;28;20059;-71
2022/07/03 02:33:58;;;;;;;0.00;0.00;;;17.10;75.90;;;;;;5048870;28;19921;-71
2022/07/03 02:36:28;;;;;;;0.00;0.00;;;17.00;75.90;;;;;;5048763;28;20041;-72
2022/07/03 02:38:56;;;;;;;0.00;0.00;;;17.00;76.20;;;;;;5048462;28;20841;-71
2022/07/03 02:41:40;;;;;;;0.00;0.00;;;16.90;75.80;;;;;;5048537;28;20592;-71
2022/07/03 02:44:32;;;;;;;0.00;0.00;;;16.80;75.90;;;;;;5048762;28;20053;-71
2022/07/03 02:47:10;;;;;;;;;;;16.80;76.90;;;;;;5048984;28;20041;-73
2022/07/03 02:49:51;;;;;;;0.00;0.00;;;16.80;77.40;;;;;;5056968;28;19928;-71
2022/07/03 02:52:38;;;;;;;0.00;0.00;;;16.70;77.40;;;;;;5049129;28;20048;-71
2022/07/03 02:55:25;;;;;;;0.03;0.03;;;16.70;76.80;;;;;;5049436;28;20060;-71
2022/07/03 02:58:02;;;;;;;0.15;0.15;;;16.70;76.40;;;;;;5052248;28;20409;-71
2022/07/03 03:00:33;;;;;;;0.00;0.00;;;16.60;76.30;;;;;;5056992;28;20045;-71
2022/07/03 03:02:58;;;;;;;0.00;0.00;;;16.60;76.30;;;;;;5051767;28;20060;-72
2022/07/03 03:05:42;;;;;;;0.00;0.00;;;16.70;76.50;;;;;;5052528;28;20051;-72
2022/07/03 03:08:24;;;;;;;0.10;0.10;;;16.70;77.00;;;;;;5051951;28;20088;-71
2022/07/03 03:10:50;;;;;;;0.00;0.00;;;16.80;77.10;;;;;;5069896;28;20088;-71
2022/07/03 03:13:19;;;;;;;0.00;0.00;;;16.80;77.30;;;;;;5058669;28;20056;-71
2022/07/03 03:16:03;;;;;;;0.00;0.00;;;16.80;77.50;;;;;;5052396;28;20130;-71
2022/07/03 03:18:30;;;;;;;0.00;0.00;;;16.80;77.20;;;;;;5051891;28;20107;-71
2022/07/03 03:20:59;;;;;;;0.00;0.00;;;16.80;76.70;;;;;;5070581;28;20048;-71
2022/07/03 03:23:52;;;;;;;0.10;0.10;;;16.80;76.80;;;;;;5056212;28;20045;-71
2022/07/03 03:26:19;;;;;;;0.00;0.00;;;16.80;77.00;;;;;;5031710;28;20726;-71
2022/07/03 03:28:44;;;;;;;0.00;0.00;;;16.80;76.80;;;;;;5048168;28;20393;-71
2022/07/03 03:31:12;;;;;;;0.00;0.00;;;16.80;76.60;;;;;;5071909;28;20049;-71
2022/07/03 03:33:43;;;;;;;0.00;0.00;;;16.80;76.60;;;;;;5058571;28;20045;-72
2022/07/03 03:36:10;;;;;;;0.00;0.00;;;16.80;76.60;;;;;;5051597;28;20076;-71
2022/07/03 03:38:37;;;;;;;0.00;0.00;;;16.80;76.90;;;;;;5051594;28;20049;-72
2022/07/03 03:41:04;;;;;;;0.00;0.00;;;16.80;76.90;;;;;;5055262;28;20052;-71
2022/07/03 03:43:31;;;;;;;0.00;0.00;;;16.80;76.90;;;;;;5051333;28;20060;-71
2022/07/03 03:45:57;;;;;;;0.00;0.00;;;16.80;77.40;;;;;;5051648;28;20135;-72
2022/07/03 03:48:23;;;;;;;0.00;0.00;;;16.90;77.90;;;;;;5051179;28;20052;-72
2022/07/03 03:50:49;;;;;;;0.00;0.00;;;17.00;77.90;;;;;;5068284;28;20052;-72
2022/07/03 03:53:17;;;;;;;0.00;0.00;;;17.00;77.70;;;;;;5063720;28;20048;-72
2022/07/03 03:56:05;;;;;;;0.00;0.00;;;17.00;77.90;;;;;;5051678;28;20048;-72
2022/07/03 03:58:33;;;;;;;0.00;0.00;;;17.10;77.50;;;;;;5038960;28;20650;-72
2022/07/03 04:01:00;;;;;;;0.00;0.00;;;17.10;77.70;;;;;;5069033;28;20131;-72
2022/07/03 04:03:27;;;;;;;0.00;0.00;;;17.10;77.80;;;;;;5063164;28;20037;-72
2022/07/03 04:05:53;;;;;;;0.00;0.00;;;17.20;77.70;;;;;;5050788;28;20083;-72
2022/07/03 04:08:20;;;;;;;0.00;0.00;;;17.20;77.50;;;;;;5050957;28;20048;-72
2022/07/03 04:10:47;;;;;;;0.00;0.00;;;17.30;77.80;;;;;;5062447;28;20049;-72
2022/07/03 04:13:13;;;;;;;0.00;0.00;;;17.30;77.60;;;;;;5050958;28;20124;-72
2022/07/03 04:15:39;;;;;;;0.00;0.00;;;17.30;77.60;;;;;;5050801;28;20493;-72
2022/07/03 04:18:04;;;;;;;0.00;0.00;;;17.50;77.50;;;;;;5050399;28;20048;-72
2022/07/03 04:20:30;;;;;;;0.00;0.00;;;17.50;77.60;;;;;;5062744;28;20040;-71
2022/07/03 04:22:59;;;;;;;0.00;0.00;;;17.50;77.80;;;;;;5063728;28;20463;-71
2022/07/03 04:25:25;;;;;;;0.17;0.17;;;17.50;77.80;;;;;;5051024;28;20460;-71
2022/07/03 04:27:52;;;;;;;0.00;0.00;;;17.50;78.10;;;;;;5059638;28;20041;-71
2022/07/03 04:30:18;;;;;;;0.00;0.00;;;17.50;78.10;;;;;;5061609;28;20066;-71
2022/07/03 04:32:43;;;;;;;0.00;0.00;;;17.60;78.30;;;;;;5063114;28;20417;-72
2022/07/03 04:35:09;;;;;;;0.00;0.00;;;17.60;78.70;;;;;;5050533;28;20043;-72
2022/07/03 04:37:35;;;;;;;0.00;0.00;;;17.50;78.50;;;;;;5050057;28;20472;-72
2022/07/03 04:40:01;;;;;;;0.00;0.00;;;17.60;78.40;;;;;;5058903;28;20159;-72
2022/07/03 04:42:26;;;;;;;0.00;0.00;;;17.60;78.30;;;;;;5070368;28;20044;-72
2022/07/03 04:44:52;;;;;;;0.00;0.00;;;17.60;78.70;;;;;;5054583;28;20047;-72
2022/07/03 04:47:18;;;;;;;0.00;0.00;;;17.60;78.60;;;;;;5050186;28;20053;-71
2022/07/03 04:49:44;;;;;;;0.00;0.00;;;17.70;78.50;;;;;;5049573;28;20120;-71
2022/07/03 04:52:10;;;;;;;0.00;0.00;;;17.60;78.50;;;;;;5060140;28;20128;-71
2022/07/03 04:54:36;;;;;;;0.00;0.00;;;17.70;78.30;;;;;;5043402;28;20144;-70
2022/07/03 04:57:03;;;;;;;0.00;0.00;;;17.70;78.20;;;;;;5049467;28;20060;-69
2022/07/03 04:59:29;;;;;;;0.00;0.00;;;17.80;78.20;;;;;;5049455;28;20624;-70
2022/07/03 05:01:54;;;;;;;0.00;0.00;;;17.80;78.40;;;;;;5049059;28;20048;-71
2022/07/03 05:04:21;;;;;;;0.00;0.00;;;17.90;78.50;;;;;;5049438;28;20508;-70
2022/07/03 05:06:48;;;;;;;0.00;0.00;;;18.00;78.40;;;;;;5048768;28;20119;-70
2022/07/03 05:09:14;;;;;;;0.00;0.00;;;17.90;78.00;;;;;;5049240;28;20501;-70
2022/07/03 05:11:41;;;;;;;0.00;0.00;;;17.90;77.30;;;;;;5048889;28;20057;-71
2022/07/03 05:14:07;;;;;;;0.00;0.00;;;17.90;76.80;;;;;;5048733;28;20048;-71
2022/07/03 05:16:32;;;;;;;0.00;0.00;;;17.90;76.50;;;;;;5048763;28;20421;-70
2022/07/03 05:18:58;;;;;;;0.00;0.00;;;17.90;76.30;;;;;;5057253;28;20036;-70
2022/07/03 05:21:24;;;;;;;0.00;0.00;;;17.90;76.10;;;;;;5049296;28;20037;-71
2022/07/03 05:23:49;;;;;;;0.00;0.00;;;17.90;76.30;;;;;;5049816;28;20041;-71
2022/07/03 05:26:15;;;;;;;0.00;0.00;;;17.90;76.40;;;;;;5049877;28;20706;-71
2022/07/03 05:28:41;;;;;;;0.00;0.00;;;17.90;76.50;;;;;;5049713;28;20084;-71
2022/07/03 05:31:07;;;;;;;0.00;0.00;;;17.90;76.30;;;;;;5061434;28;20120;-71
2022/07/03 05:33:32;;;;;;;0.00;0.00;;;17.80;76.40;;;;;;5049781;28;20131;-71
2022/07/03 05:35:59;;;;;;;0.00;0.00;;;17.90;76.50;;;;;;5048813;28;20087;-71
2022/07/03 05:41:19;;;;;;;0.00;0.00;;;17.80;76.60;;;;;;5022801;28;20465;-71
2022/07/03 05:43:45;;;;;;;0.00;0.00;;;17.90;76.50;;;;;;5029799;28;20057;-72
2022/07/03 05:46:11;;;;;;;0.00;0.00;;;18.00;76.50;;;;;;5032566;28;20049;-72
2022/07/03 05:48:37;;;;;;;0.00;0.00;;;18.00;76.30;;;;;;5049546;28;20453;-72
2022/07/03 05:51:02;;;;;;;0.00;0.00;;;18.10;76.40;;;;;;5049051;28;20056;-72
2022/07/03 05:53:28;;;;;;;0.00;0.00;;;18.10;76.50;;;;;;5049007;28;20053;-73
2022/07/03 05:55:54;;;;;;;0.00;0.00;;;18.10;76.80;;;;;;5049160;28;20072;-72
2022/07/03 05:58:19;;;;;;;0.00;0.00;;;18.10;76.80;;;;;;5050114;28;20048;-73
2022/07/03 06:00:45;;;;;;;0.00;0.00;;;18.10;76.70;;;;;;5049221;28;20390;-73
2022/07/03 06:03:11;;;;;;;0.10;0.10;;;18.20;76.90;;;;;;5047674;28;20090;-72
2022/07/03 06:05:38;;;;;;;0.00;0.00;;;18.30;76.50;;;;;;5048937;28;20041;-73
2022/07/03 06:08:04;;;;;;;0.00;0.00;;;18.20;77.30;;;;;;5048799;28;20092;-72
2022/07/03 06:10:30;;;;;;;0.00;0.00;;;18.30;77.20;;;;;;5049055;28;20045;-72
2022/07/03 06:12:56;;;;;;;0.10;0.10;;;18.30;77.20;;;;;;5048385;28;20060;-72
2022/07/03 06:15:22;;;;;;;0.00;0.00;;;18.20;77.00;;;;;;5049010;28;20048;-72
2022/07/03 06:17:48;;;;;;;0.00;0.00;;;18.30;76.80;;;;;;5064235;28;20094;-72
2022/07/03 06:20:13;;;;;;;0.00;0.00;;;18.30;76.80;;;;;;5048260;28;20049;-72
2022/07/03 06:22:40;;;;;;;0.00;0.00;;;18.30;77.30;;;;;;5048823;28;20037;-71
2022/07/03 06:25:06;;;;;;;0.00;0.00;;;18.30;77.50;;;;;;5044992;28;20048;-71
2022/07/03 06:27:32;;;;;;;0.00;0.00;;;18.40;77.90;;;;;;5048066;28;20037;-72
2022/07/03 06:29:58;;;;;;;0.00;0.00;;;18.50;77.40;;;;;;5050922;28;20071;-72
2022/07/03 06:32:23;;;;;;;0.00;0.00;;;18.50;77.50;;;;;;5052003;28;20106;-72
2022/07/03 06:34:49;;;;;;;0.00;0.00;;;18.60;77.30;;;;;;5052256;28;20041;-72
2022/07/03 06:37:15;;;;;;;0.00;0.00;;;18.60;77.20;;;;;;5043208;28;20089;-72
2022/07/03 06:39:41;;;;;;;0.00;0.00;;;18.60;76.90;;;;;;5052419;28;20083;-72
2022/07/03 06:42:07;;;;;;;0.00;0.00;;;18.70;76.20;;;;;;5051657;28;20049;-71
2022/07/03 06:44:32;;;;;;;0.00;0.00;;;18.70;75.00;;;;;;5052266;28;20143;-70
2022/07/03 06:46:58;;;;;;;0.00;0.00;;;18.70;74.80;;;;;;5051154;28;20084;-70
2022/07/03 06:49:24;;;;;;;0.00;0.00;;;18.80;74.20;;;;;;5052021;28;20123;-71
2022/07/03 06:51:49;;;;;;;0.00;0.00;;;18.80;74.40;;;;;;5051846;28;20061;-70
2022/07/03 06:54:15;;;;;;;0.00;0.00;;;18.90;74.70;;;;;;5051518;28;20049;-70
2022/07/03 06:56:44;;;;;;;0.00;0.00;;;19.00;75.20;;;;;;5049896;28;20844;-71
2022/07/03 06:59:10;;;;;;;0.00;0.00;;;19.00;74.80;;;;;;5050664;28;20040;-71
2022/07/03 07:01:35;;;;;;;0.00;0.00;;;19.10;74.50;;;;;;5051200;28;20414;-71
2022/07/03 07:04:02;;;;;;;0.00;0.00;;;19.10;73.80;;;;;;5051349;28;20052;-70
2022/07/03 07:06:28;;;;;;;0.00;0.00;;;19.10;73.10;;;;;;5048210;28;20590;-70
2022/07/03 07:08:54;;;;;;;0.00;0.00;;;19.10;72.90;;;;;;5048949;28;20036;-69
2022/07/03 07:11:19;;;;;;;0.00;0.00;;;19.10;73.10;;;;;;5051948;28;20041;-71
2022/07/03 07:13:45;;;;;;;0.00;0.00;;;19.10;73.30;;;;;;5041689;28;20046;-71
2022/07/03 07:16:10;;;;;;;0.00;0.00;;;19.10;73.40;;;;;;5031451;28;20491;-69
2022/07/03 07:18:36;;;;;;;0.00;0.00;;;19.20;73.70;;;;;;5035120;28;20037;-70
2022/07/03 07:21:02;;;;;;;0.00;0.00;;;19.30;73.40;;;;;;5050278;28;20425;-70
2022/07/03 07:23:27;;;;;;;0.00;0.00;;;19.30;72.30;;;;;;5050940;28;20090;-69
2022/07/03 07:25:53;;;;;;;0.00;0.00;;;19.40;72.60;;;;;;5047480;28;20057;-70
2022/07/03 07:28:19;;;;;;;0.00;0.00;;;19.40;73.20;;;;;;5048125;28;20072;-70
2022/07/03 07:30:44;;;;;;;0.00;0.00;;;19.50;72.50;;;;;;5049708;28;20494;-69
2022/07/03 07:33:11;;;;;;;0.00;0.00;;;19.60;72.60;;;;;;5049610;28;20140;-69
2022/07/03 07:35:36;;;;;;;0.00;0.00;;;19.60;72.30;;;;;;5051162;28;20451;-70
2022/07/03 07:38:02;;;;;;;0.00;0.00;;;19.60;72.00;;;;;;5051400;28;20037;-69
2022/07/03 07:40:27;;;;;;;1.00;1.00;;;19.60;70.80;;;;;;5043668;28;20041;-69
2022/07/03 07:42:53;;;;;;;0.00;0.00;;;19.60;69.90;;;;;;5051038;28;20482;-70
2022/07/03 07:45:19;;;;;;;0.00;0.00;;;19.70;70.80;;;;;;5051079;28;20043;-70
2022/07/03 07:47:44;;;;;;;0.00;0.00;;;19.80;71.60;;;;;;5048508;28;20049;-69
2022/07/03 07:50:11;;;;;;;0.00;0.00;;;19.80;70.40;;;;;;5050557;28;20037;-69
2022/07/03 07:52:36;;;;;;;0.00;0.00;;;19.80;69.30;;;;;;5049552;28;20501;-69
2022/07/03 07:55:03;;;;;;;0.00;0.00;;;19.90;69.30;;;;;;5051018;28;20044;-69
2022/07/03 07:57:39;;;;;;;0.00;0.00;;;19.90;69.50;;;;;;5050179;28;20049;-69
2022/07/03 08:00:10;;;;;;;0.00;0.00;;;19.90;68.80;;;;;;5050085;28;20049;-70
2022/07/03 08:05:35;;;;;;;0.00;0.00;;;20.00;68.00;;;;;;5049782;28;20053;-70
2022/07/03 08:08:02;;;;;;;0.00;0.00;;;20.00;68.50;;;;;;5048653;28;20071;-68
2022/07/03 08:10:27;;;;;;;0.00;0.00;;;20.00;69.40;;;;;;5048635;28;20094;-69
2022/07/03 08:12:53;;;;;;;0.00;0.00;;;20.10;68.70;;;;;;5048923;28;20052;-69
2022/07/03 08:15:18;;;;;;;0.52;0.40;;;20.10;66.80;;;;;;5049786;28;20064;-69
2022/07/03 08:17:44;;;;;;;0.00;0.00;;;20.10;66.50;;;;;;5048375;28;20056;-69
2022/07/03 08:20:10;;;;;;;0.32;0.32;;;20.10;65.20;;;;;;5049105;28;20051;-69
2022/07/03 08:22:35;;;;;;;0.00;0.00;;;20.20;66.50;;;;;;5048800;28;20396;-69
2022/07/03 08:25:01;;;;;;;0.00;0.00;;;20.30;67.90;;;;;;5050011;28;20048;-68
2022/07/03 08:27:27;;;;;;;0.00;0.00;;;20.40;67.80;;;;;;5048012;28;20041;-69
2022/07/03 08:29:52;;;;;;;0.00;0.00;;;20.50;66.70;;;;;;5049059;28;20044;-68
2022/07/03 08:32:18;;;;;;;0.03;0.03;;;20.50;64.80;;;;;;5047882;28;20095;-68
2022/07/03 08:34:43;;;;;;;0.00;0.00;;;20.60;66.50;;;;;;5048753;28;20064;-68
2022/07/03 08:37:09;;;;;;;0.00;0.00;;;20.60;65.70;;;;;;5048446;28;20072;-68
2022/07/03 08:39:35;;;;;;;0.00;0.00;;;20.50;64.40;;;;;;5047690;28;20513;-69
2022/07/03 08:42:02;;;;;;;0.00;0.00;;;20.40;65.90;;;;;;5047078;28;20130;-68
2022/07/03 08:44:28;;;;;;;0.00;0.00;;;20.20;66.70;;;;;;5047774;28;20075;-69
2022/07/03 08:46:56;;;;;;;0.00;0.00;;;20.30;67.40;;;;;;5048608;28;20041;-68
2022/07/03 08:49:22;;;;;;;0.00;0.00;;;20.30;67.00;;;;;;5049129;28;20124;-69
2022/07/03 08:51:49;;;;;;;0.00;0.00;;;20.30;65.90;;;;;;5047819;28;20037;-68
2022/07/03 08:54:15;;;;;;;0.35;0.30;;;20.30;66.20;;;;;;5047453;28;20044;-69
2022/07/03 08:56:42;;;;;;;0.00;0.00;;;20.30;66.60;;;;;;5049536;28;20048;-70
2022/07/03 08:59:08;;;;;;;0.00;0.00;;;20.30;66.70;;;;;;5048919;28;20551;-69
2022/07/03 09:01:34;;;;;;;0.05;0.05;;;20.40;67.20;;;;;;5045835;28;20041;-67
2022/07/03 09:04:01;;;;;;;0.00;0.00;;;20.40;68.30;;;;;;5045598;28;20442;-67
2022/07/03 09:06:33;;;;;;;0.00;0.00;;;20.50;68.00;;;;;;5048807;28;20048;-67
2022/07/03 09:09:02;;;;;;;0.00;0.00;;;20.50;67.90;;;;;;5046255;28;20084;-66
2022/07/03 09:11:28;;;;;;;0.15;0.10;;;20.40;67.00;;;;;;5048556;28;20494;-67
2022/07/03 09:13:53;;;;;;;0.00;0.00;;;20.30;66.70;;;;;;5048472;28;20033;-67
2022/07/03 09:16:19;;;;;;;0.00;0.00;;;20.30;65.30;;;;;;5048070;28;20079;-66
2022/07/03 09:18:45;;;;;;;0.00;0.00;;;20.50;67.00;;;;;;5030320;28;20041;-67
2022/07/03 09:21:11;;;;;;;0.00;0.00;;;20.70;68.30;;;;;;5048120;28;20099;-66
2022/07/03 09:23:39;;;;;;;0.00;0.00;;;20.90;67.40;;;;;;5048673;28;20137;-68
2022/07/03 09:26:06;;;;;;;0.00;0.00;;;21.00;66.90;;;;;;5048448;28;20456;-66
2022/07/03 09:28:51;;;;;;;0.00;0.00;;;21.10;66.20;;;;;;5049196;28;20484;-66
2022/07/03 09:31:28;;;;;;;0.00;0.00;;;21.20;66.00;;;;;;5048110;28;20037;-67
2022/07/03 09:33:59;;;;;;;0.00;0.00;;;21.20;66.40;;;;;;5047823;28;20044;-67
2022/07/03 09:36:50;;;;;;;0.00;0.00;;;21.30;67.20;;;;;;5048733;28;20041;-67
2022/07/03 09:39:34;;;;;;;0.00;0.00;;;21.40;67.10;;;;;;5049368;28;20048;-67
2022/07/03 09:42:09;;;;;;;0.00;0.00;;;21.60;65.90;;;;;;5045007;28;20119;-67
2022/07/03 09:44:40;;;;;;;0.00;0.00;;;21.60;66.20;;;;;;5048521;28;20068;-66
2022/07/03 09:47:11;;;;;;;0.00;0.00;;;21.50;66.70;;;;;;5047665;28;20049;-66
2022/07/03 09:49:55;;;;;;;1.00;0.77;;;21.30;66.50;;;;;;5055505;28;20044;-66
2022/07/03 09:52:35;;;;;;;0.00;0.00;;;21.00;67.30;;;;;;5055339;28;20098;-66
2022/07/03 09:55:10;;;;;;;0.00;0.00;;;20.90;67.10;;;;;;5048733;28;20077;-67
2022/07/03 09:57:49;;;;;;;0.08;0.08;;;20.80;68.50;;;;;;5048999;28;20090;-67
2022/07/03 10:00:24;;;;;;;0.00;0.00;;;20.60;68.70;;;;;;5049955;28;20045;-66
2022/07/03 10:02:59;;;;;;;0.00;0.00;;;20.60;69.10;;;;;;5039755;28;20132;-67
2022/07/03 10:05:30;;;;;;;0.00;0.00;;;20.50;68.00;;;;;;5046390;28;20049;-66
2022/07/03 10:07:58;;;;;;;0.00;0.00;;;20.60;69.40;;;;;;5052319;28;20044;-66
2022/07/03 10:10:25;;;;;;;0.00;0.00;;;20.70;70.00;;;;;;5049419;28;20489;-66
2022/07/03 10:12:52;;;;;;;0.00;0.00;;;20.50;69.70;;;;;;5049064;28;21780;-66
2022/07/03 10:15:19;;;;;;;0.00;0.00;;;20.50;70.70;;;;;;5046988;28;20719;-67
2022/07/03 10:17:48;;;;;;;0.00;0.00;;;20.50;70.10;;;;;;5048965;28;20045;-66
2022/07/03 10:20:15;;;;;;;0.00;0.00;;;20.50;68.20;;;;;;5048929;28;20048;-66
2022/07/03 10:22:46;;;;;;;0.13;0.13;;;20.60;68.10;;;;;;5048455;28;20041;-66
2022/07/03 10:25:13;;;;;;;0.00;0.00;;;20.60;69.30;;;;;;5039215;28;20141;-66
2022/07/03 10:27:40;;;;;;;0.00;0.00;;;20.60;70.50;;;;;;5034009;28;20049;-68
2022/07/03 10:30:06;;;;;;;0.10;0.10;;;20.50;71.10;;;;;;5054232;28;20505;-65
2022/07/03 10:32:37;;;;;;;0.00;0.00;;;20.50;71.40;;;;;;5049100;28;20037;-66
2022/07/03 10:35:03;;;;;;;0.00;0.00;;;20.40;72.50;;;;;;5044480;28;20132;-67
2022/07/03 10:37:59;;;;;;;0.70;0.32;;;20.50;71.80;;;;;;5048309;28;20132;-66
2022/07/03 10:46:17;;;;;;;0.00;0.00;;;20.50;70.50;;;;;;5048578;28;20461;-67
2022/07/03 10:48:56;;;;;;;0.00;0.00;;;20.80;70.60;;;;;;5047667;28;20490;-67
2022/07/03 10:51:22;;;;;;;0.00;0.00;;;20.80;68.10;;;;;;5048608;28;20099;-67
2022/07/03 10:53:48;;;;;;;0.00;0.00;;;20.70;66.60;;;;;;5048636;28;20048;-66
2022/07/03 10:56:14;;;;;;;0.00;0.00;;;20.80;67.10;;;;;;5047510;28;20064;-66
2022/07/03 10:58:56;;;;;;;0.00;0.00;;;20.80;67.10;;;;;;5048660;28;20402;-66
2022/07/03 11:01:28;;;;;;;0.00;0.00;;;20.90;67.00;;;;;;5048683;28;20045;-67
2022/07/03 11:03:59;;;;;;;0.00;0.00;;;21.00;67.50;;;;;;5048828;28;20049;-67
2022/07/03 11:06:43;;;;;;;0.00;0.00;;;21.10;68.10;;;;;;5046866;28;20053;-67
2022/07/03 11:09:12;;;;;;;0.00;0.00;;;21.20;67.10;;;;;;5047754;28;20048;-67
2022/07/03 11:11:54;;;;;;;0.43;0.43;;;21.10;65.50;;;;;;5041226;28;20045;-66
2022/07/03 11:14:20;;;;;;;;;;;21.20;66.30;;;;;;5048853;28;20044;-67
2022/07/03 11:16:46;;;;;;;0.00;0.00;;;21.20;65.20;;;;;;5044458;28;19921;-68
2022/07/03 11:19:12;;;;;;;0.00;0.00;;;21.20;65.40;;;;;;5051550;28;20511;-67
2022/07/03 11:21:42;;;;;;;0.00;0.00;;;21.20;65.10;;;;;;5051181;28;20839;-67
2022/07/03 11:24:32;;;;;;;0.00;0.00;;;21.20;65.40;;;;;;5051622;28;20041;-66
2022/07/03 11:27:18;;;;;;;0.00;0.00;;;21.10;64.90;;;;;;5051284;28;20515;-67
2022/07/03 11:29:53;;;;;;;0.65;0.65;;;21.20;65.30;;;;;;5046639;28;20080;-66
2022/07/03 11:32:49;;;;;;;0.00;0.00;;;21.10;65.70;;;;;;5062372;28;20500;-69
2022/07/03 11:35:51;;;;;;;0.77;0.45;;;21.10;66.80;;;;;;5061477;28;20041;-69
2022/07/03 11:38:28;;;;;;;0.00;0.00;;;21.00;66.60;;;;;;5051789;28;20036;-68
2022/07/03 11:40:56;;;;;;;0.00;0.00;;;21.00;65.40;;;;;;5057227;28;20864;-68
2022/07/03 11:43:21;;;;;;;0.00;0.00;;;21.10;65.90;;;;;;5057949;28;20033;-70
2022/07/03 11:45:48;;;;;;;0.00;0.00;;;21.20;65.10;;;;;;5064203;28;20052;-68
2022/07/03 11:48:18;;;;;;;0.55;0.55;;;21.10;65.10;;;;;;5042781;28;20053;-69
2022/07/03 11:50:45;;;;;;;0.00;0.00;;;21.00;64.80;;;;;;5051253;28;20047;-69
2022/07/03 11:53:23;;;;;;;0.00;0.00;;;21.00;66.20;;;;;;5057050;28;20059;-69
2022/07/03 11:56:04;;;;;;;0.00;0.00;;;21.00;66.80;;;;;;5071139;28;20508;-69
2022/07/03 11:58:46;;;;;;;0.00;0.00;;;21.00;66.10;;;;;;5042248;28;20482;-69
2022/07/03 12:01:33;;;;;;;0.00;0.00;;;21.20;66.50;;;;;;5031570;28;20056;-69
2022/07/03 12:04:14;;;;;;;0.00;0.00;;;21.30;65.30;;;;;;5051055;28;20033;-69
2022/07/03 12:06:51;;;;;;;0.00;0.00;;;21.50;64.20;;;;;;5050217;28;20494;-69
2022/07/03 12:09:28;;;;;;;0.00;0.00;;;21.60;64.20;;;;;;5052809;28;20083;-69
2022/07/03 12:12:04;;;;;;;0.00;0.00;;;21.60;63.50;;;;;;5050361;28;20057;-69
2022/07/03 12:14:41;;;;;;;0.00;0.00;;;21.70;62.90;;;;;;5051691;28;20086;-69
2022/07/03 12:17:11;;;;;;;0.05;0.05;;;21.70;64.60;;;;;;5050456;28;20053;-69
2022/07/03 12:19:38;;;;;;;0.00;0.00;;;21.80;63.70;;;;;;5065315;28;20110;-69
2022/07/03 12:22:04;;;;;;;0.00;0.00;;;21.80;63.80;;;;;;5063771;28;20391;-68
2022/07/03 12:24:30;;;;;;;0.00;0.00;;;21.70;63.10;;;;;;5058791;28;20048;-69
2022/07/03 12:26:55;;;;;;;0.00;0.00;;;21.80;64.30;;;;;;5065778;28;20556;-69
2022/07/03 12:29:21;;;;;;;0.00;0.00;;;21.60;64.70;;;;;;5049669;28;20579;-69
2022/07/03 12:31:48;;;;;;;0.00;0.00;;;21.60;67.10;;;;;;5066301;28;20449;-68
2022/07/03 12:34:16;;;;;;;0.00;0.00;;;21.60;66.50;;;;;;5055864;28;20045;-69
2022/07/03 12:36:58;;;;;;;0.00;0.00;;;21.50;66.90;;;;;;5049318;28;20125;-69
2022/07/03 12:39:44;;;;;;;0.00;0.00;;;21.30;65.60;;;;;;5068331;28;20032;-70
2022/07/03 12:42:20;;;;;;;0.00;0.00;;;21.20;66.60;;;;;;5040893;28;20041;-69
2022/07/03 12:45:00;;;;;;;0.00;0.00;;;21.10;67.00;;;;;;5050493;28;20056;-70
2022/07/03 12:47:28;;;;;;;0.00;0.00;;;21.00;67.00;;;;;;5052097;28;20041;-69
2022/07/03 12:50:02;;;;;;;0.00;0.00;;;20.90;67.20;;;;;;5050126;28;20224;-69
2022/07/03 12:52:29;;;;;;;0.00;0.00;;;20.90;67.10;;;;;;5048050;28;20053;-69
2022/07/03 12:54:56;;;;;;;0.00;0.00;;;20.70;65.50;;;;;;5049329;28;20037;-69
2022/07/03 13:00:12;;;;;;;0.00;0.00;;;20.80;66.80;;;;;;5042987;28;20131;-70
2022/07/03 13:02:39;;;;;;;0.00;0.00;;;20.80;66.30;;;;;;5055503;28;20055;-69
2022/07/03 13:05:22;;;;;;;0.00;0.00;;;20.80;65.80;;;;;;5049398;28;20565;-69
2022/07/03 13:07:53;;;;;;;0.00;0.00;;;20.90;65.90;;;;;;5030700;28;20049;-69
2022/07/03 13:10:22;;;;;;;0.00;0.00;;;20.80;65.40;;;;;;5055345;28;20501;-69
2022/07/03 13:12:56;;;;;;;3.63;1.98;;;20.70;64.70;;;;;;5067265;28;20052;-69
2022/07/03 13:15:29;;;;;;;0.00;0.00;;;20.60;64.00;;;;;;5047830;28;20046;-70
2022/07/03 13:17:54;;;;;;;0.00;0.00;;;20.50;64.00;;;;;;5073231;28;20040;-70